Vaaraa aiheuttavia sääilmiöitä ei ole odotettavissa.    Ei varoituksia

Webkamera Lisätietoa Webcam


Yksityisiä sääasemia lähellä:

Sääasema Juupajoki

Sääasema Orivesi

Sääasema Muurame

Sääasema Jyväskylä

Sääasema Vihtavuori


Löydät sääaseman tiedot myös:

Finland Weather Exchange

European Weather Network

Weather Underground

AWEKAS



Säätiedot lähimmiltä METAR asemilta

   
EFHA - Halli (Fin-Afb), Finland
Etäisyys asemalta: Kaakko 25 km
Päivitetty: 16.02.2019 04:50
Sumua, Pilvistä  
Sumua, Pilvistä  
   Tuuli: Etelä 4.6 m/s
Tuuli: Etelä 4.6 m/s
Lämpötila: 0°C
Tuulen hyytävyys: -4°C
Kastepiste: 0°C
Kosteus: 100%
Ilmanpaine: 1006 hPa
Pilvisyys: Pilvistä
Näkyvyys: 0 km
Pilvitiedot: Pilvistä 61 m
EFHA 160250Z AUTO 17009KT 0150 R26/0700D FG VV002 00/00 Q1006
EFJY - Jyvaskyla (Mil/Civ), Finland
Etäisyys asemalta: Koillinen 75 km
Päivitetty: 16.02.2019 04:50
Utua, Pilvistä  
Utua, Pilvistä  
   Tuuli: Eteläkaakko 2.1 m/s
Tuuli: Eteläkaakko 2.1 m/s
Lämpötila: -2°C
Tuulen hyytävyys: -5°C
Kastepiste: -3°C
Kosteus: 93%
Ilmanpaine: 1006 hPa
Pilvisyys: Pilvistä
Näkyvyys: 4 km
Pilvitiedot: Pilvistä 91 m
EFJY 160250Z AUTO 16004KT 3800 BR VV003 M02/M03 Q1006
EFTP - Tampere/Pirkkala, Finland
Etäisyys asemalta: Lounas 81 km
Päivitetty: 16.02.2019 05:20
Melkein pilvistä  
Melkein pilvistä  
   Tuuli: Etelälounas 4.1 m/s
Tuuli: Etelälounas 4.1 m/s
Lämpötila: 1°C
Tuulen hyytävyys: -3°C
Kastepiste: 1°C
Kosteus: 100%
Ilmanpaine: 1007 hPa
Pilvisyys: Melkein pilvistä
Näkyvyys: Enemmän kuin 10 km
Pilvitiedot: Vähäistä pilvisyyttä 91 m,
Puolipilvistä 152 m,
Melkein pilvistä 213 m,
Melkein pilvistä 274 m
EFTP 160320Z AUTO 20008KT 9999 FEW003 SCT005 BKN007 BKN009 01/01 Q1007
EFSI - Seinajoki-Ilmajoki, Finland
Etäisyys asemalta: Luode 114 km
Päivitetty: 16.02.2019 05:20
Melkein pilvistä  
Melkein pilvistä  
   Tuuli: Etelä 4.1 m/s
Tuuli: Etelä 4.1 m/s
Lämpötila: 1°C
Tuulen hyytävyys: -3°C
Kastepiste: 1°C
Kosteus: 100%
Ilmanpaine: 1004 hPa
Pilvisyys: Melkein pilvistä
Pilvitiedot: Puolipilvistä 91 m,
Melkein pilvistä 152 m
EFSI 160320Z AUTO 18008KT 140V220 //// SCT003 BKN005 01/01 Q1004
EFMI - Mikkeli, Finland
Etäisyys asemalta: Itäkaakko 147 km
Päivitetty: 16.02.2019 05:20
Selkeää  
Selkeää  
   Tuuli: Kaakko 1 m/s
Tuuli: Kaakko 1 m/s
Lämpötila: 0°C
Kastepiste: 0°C
Kosteus: 100%
Ilmanpaine: 1008 hPa
Näkyvyys: Enemmän kuin 10 km
Pilvitiedot: Selkeää
EFMI 160320Z AUTO 13002KT CAVOK 00/00 Q1008
EFPO - Pori (Mil/Civ), Finland
Etäisyys asemalta: Länsilounas 154 km
Päivitetty: 16.02.2019 05:20
Selkeää  
Selkeää  
   Tuuli: Lounas 6.2 m/s
Tuuli: Lounas 6.2 m/s
Lämpötila: 3°C
Tuulen hyytävyys: -2°C
Kastepiste: -1°C
Kosteus: 75%
Ilmanpaine: 1006 hPa
Näkyvyys: Enemmän kuin 10 km
Pilvitiedot: Selkeää
EFPO 160320Z AUTO 22012KT CAVOK 03/M01 Q1006
EFUT - Utti (Fin-Afb), Finland
Etäisyys asemalta: Kaakko 180 km
Päivitetty: 16.02.2019 05:20
Jäätävää, Sumua, Pilvistä  
Jäätävää, Sumua, Pilvistä  
   Tuuli: Etelä 4.1 m/s
Tuuli: Etelä 4.1 m/s
Lämpötila: -1°C
Tuulen hyytävyys: -6°C
Kastepiste: -1°C
Kosteus: 100%
Ilmanpaine: 1009 hPa
Pilvisyys: Pilvistä
Näkyvyys: 1 km
Pilvitiedot: Pilvistä 31 m
EFUT 160320Z AUTO 19008KT 0450 R25/0550N FZFG VV001 M01/M01 Q1009
EFVA - Vaasa, Finland
Etäisyys asemalta: Luode 180 km
Päivitetty: 16.02.2019 05:20
Vähäistä pilvisyyttä  
Vähäistä pilvisyyttä  
   Tuuli: Etelä 4.6 m/s
Tuuli: Etelä 4.6 m/s
Lämpötila: 1°C
Tuulen hyytävyys: -3°C
Kastepiste: 0°C
Kosteus: 93%
Ilmanpaine: 1002 hPa
Pilvisyys: Vähäistä pilvisyyttä
Näkyvyys: Enemmän kuin 10 km
Pilvitiedot: Vähäistä pilvisyyttä 213 m
EFVA 160320Z AUTO 18009KT 9999 FEW007/// 01/M00 Q1002
EFHK - Helsinki/Vantaa, Finland
Etäisyys asemalta: Etelä 191 km
Päivitetty: 16.02.2019 05:20
Sumua, Pilvistä  
Sumua, Pilvistä  
   Tuuli: Lounas 4.6 m/s
Tuuli: Lounas 4.6 m/s
Lämpötila: 1°C
Tuulen hyytävyys: -3°C
Kastepiste: 0°C
Kosteus: 93%
Ilmanpaine: 1010 hPa
Pilvisyys: Pilvistä
Näkyvyys: 1 km
Pilvitiedot: Pilvistä 61 m
EFHK 160320Z 22009KT 0800 R04R/P1500U R15/1100VP1500U R22L/1300U R04L/P1500U FG VV002 01/00 Q1010 BECMG 1500 BR

Alkuperäinen skripti  Saratoga-weather.org Sovitettu myös templatelle  Weerstation Leuven

Laitteet joita käytämme:

Sääasema
Davis VP2

Sääasemaohjelma
Cumulus

Sääaseman palvelin
HP ProBook 6460b

Palveluntarjoaja
Radicenter

Davis VP2

Cumulus

HP ProBook 6460b

Radicenter




Flag Counter Cumulus Top Weather Sites